sensor_id;sensor_type;location;lat;lon;timestamp;pressure;altitude;pressure_sealevel;temperature;humidity
21357;BME280;10836;53.068;18.234;2023-03-15T00:01:59;99696.56;;;1.89;100.00
21357;BME280;10836;53.068;18.234;2023-03-15T00:04:27;99704.53;;;1.84;100.00
21357;BME280;10836;53.068;18.234;2023-03-15T00:06:54;99710.22;;;1.71;100.00
21357;BME280;10836;53.068;18.234;2023-03-15T00:09:21;99720.22;;;1.87;100.00
21357;BME280;10836;53.068;18.234;2023-03-15T00:11:50;99714.63;;;1.77;100.00
21357;BME280;10836;53.068;18.234;2023-03-15T00:14:17;99733.47;;;1.77;100.00
21357;BME280;10836;53.068;18.234;2023-03-15T00:16:46;99747.41;;;1.74;100.00
21357;BME280;10836;53.068;18.234;2023-03-15T00:19:13;99752.06;;;1.79;100.00
21357;BME280;10836;53.068;18.234;2023-03-15T00:21:40;99758.69;;;1.71;100.00
21357;BME280;10836;53.068;18.234;2023-03-15T00:24:09;99760.78;;;1.69;100.00
21357;BME280;10836;53.068;18.234;2023-03-15T00:26:37;99751.97;;;1.74;100.00
21357;BME280;10836;53.068;18.234;2023-03-15T00:29:07;99760.78;;;1.69;100.00
21357;BME280;10836;53.068;18.234;2023-03-15T00:31:34;99773.66;;;1.67;100.00
21357;BME280;10836;53.068;18.234;2023-03-15T00:34:01;99783.75;;;1.60;100.00
21357;BME280;10836;53.068;18.234;2023-03-15T00:36:28;99784.22;;;1.57;100.00
21357;BME280;10836;53.068;18.234;2023-03-15T00:38:57;99789.94;;;1.49;100.00
21357;BME280;10836;53.068;18.234;2023-03-15T00:41:24;99800.72;;;1.49;100.00
21357;BME280;10836;53.068;18.234;2023-03-15T00:43:51;99798.03;;;1.49;100.00
21357;BME280;10836;53.068;18.234;2023-03-15T00:46:19;99795.56;;;1.47;100.00
21357;BME280;10836;53.068;18.234;2023-03-15T00:48:48;99792.41;;;1.39;100.00
21357;BME280;10836;53.068;18.234;2023-03-15T00:51:20;99796.75;;;1.40;100.00
21357;BME280;10836;53.068;18.234;2023-03-15T00:53:50;99821.22;;;1.26;100.00
21357;BME280;10836;53.068;18.234;2023-03-15T00:56:20;99819.34;;;1.27;100.00
21357;BME280;10836;53.068;18.234;2023-03-15T00:58:47;99818.41;;;1.21;100.00
21357;BME280;10836;53.068;18.234;2023-03-15T01:01:25;99827.06;;;1.23;100.00
21357;BME280;10836;53.068;18.234;2023-03-15T01:03:52;99826.34;;;1.16;100.00
21357;BME280;10836;53.068;18.234;2023-03-15T01:06:22;99832.19;;;1.13;100.00
21357;BME280;10836;53.068;18.234;2023-03-15T01:08:49;99838.97;;;1.04;100.00
21357;BME280;10836;53.068;18.234;2023-03-15T01:11:20;99836.03;;;1.06;100.00
21357;BME280;10836;53.068;18.234;2023-03-15T01:13:51;99847.72;;;0.99;100.00
21357;BME280;10836;53.068;18.234;2023-03-15T01:16:18;99860.56;;;0.97;100.00
21357;BME280;10836;53.068;18.234;2023-03-15T01:18:45;99869.22;;;0.99;100.00
21357;BME280;10836;53.068;18.234;2023-03-15T01:21:14;99868.16;;;1.00;100.00
21357;BME280;10836;53.068;18.234;2023-03-15T01:23:44;99880.78;;;1.00;100.00
21357;BME280;10836;53.068;18.234;2023-03-15T01:26:13;99892.81;;;0.97;100.00
21357;BME280;10836;53.068;18.234;2023-03-15T01:28:42;99893.50;;;0.93;100.00
21357;BME280;10836;53.068;18.234;2023-03-15T01:31:21;99901.94;;;0.96;100.00
21357;BME280;10836;53.068;18.234;2023-03-15T01:33:50;99902.97;;;0.84;100.00
21357;BME280;10836;53.068;18.234;2023-03-15T01:36:17;99898.06;;;0.81;100.00
21357;BME280;10836;53.068;18.234;2023-03-15T01:38:44;99909.50;;;0.88;100.00
21357;BME280;10836;53.068;18.234;2023-03-15T01:41:14;99924.47;;;0.84;100.00
21357;BME280;10836;53.068;18.234;2023-03-15T01:43:41;99920.59;;;0.80;100.00
21357;BME280;10836;53.068;18.234;2023-03-15T01:49:16;99934.03;;;0.80;100.00
21357;BME280;10836;53.068;18.234;2023-03-15T01:51:48;99933.69;;;0.76;100.00
21357;BME280;10836;53.068;18.234;2023-03-15T01:54:23;99934.22;;;0.66;100.00
21357;BME280;10836;53.068;18.234;2023-03-15T01:57:17;99943.69;;;0.69;100.00
21357;BME280;10836;53.068;18.234;2023-03-15T01:59:51;99960.56;;;0.76;100.00
21357;BME280;10836;53.068;18.234;2023-03-15T02:02:21;99947.94;;;0.77;100.00
21357;BME280;10836;53.068;18.234;2023-03-15T02:04:56;99964.38;;;0.69;100.00
21357;BME280;10836;53.068;18.234;2023-03-15T02:07:25;99956.53;;;0.67;100.00
21357;BME280;10836;53.068;18.234;2023-03-15T02:10:02;99957.50;;;0.73;100.00
21357;BME280;10836;53.068;18.234;2023-03-15T02:12:35;99971.47;;;0.63;100.00
21357;BME280;10836;53.068;18.234;2023-03-15T02:15:04;99966.47;;;0.66;100.00
21357;BME280;10836;53.068;18.234;2023-03-15T02:17:44;99972.28;;;0.63;100.00
21357;BME280;10836;53.068;18.234;2023-03-15T02:23:11;99983.47;;;0.60;100.00
21357;BME280;10836;53.068;18.234;2023-03-15T02:25:46;100001.41;;;0.66;100.00
21357;BME280;10836;53.068;18.234;2023-03-15T02:28:17;100000.19;;;0.62;100.00
21357;BME280;10836;53.068;18.234;2023-03-15T02:30:45;100018.41;;;0.60;100.00
21357;BME280;10836;53.068;18.234;2023-03-15T02:33:24;100009.75;;;0.58;100.00
21357;BME280;10836;53.068;18.234;2023-03-15T02:35:52;100024.09;;;0.52;100.00
21357;BME280;10836;53.068;18.234;2023-03-15T02:38:20;100027.81;;;0.51;100.00
21357;BME280;10836;53.068;18.234;2023-03-15T02:40:50;100029.91;;;0.49;100.00
21357;BME280;10836;53.068;18.234;2023-03-15T02:43:22;100041.78;;;0.42;100.00
21357;BME280;10836;53.068;18.234;2023-03-15T02:45:52;100045.75;;;0.39;100.00
21357;BME280;10836;53.068;18.234;2023-03-15T02:48:19;100039.63;;;0.32;100.00
21357;BME280;10836;53.068;18.234;2023-03-15T02:50:47;100037.97;;;0.31;100.00
21357;BME280;10836;53.068;18.234;2023-03-15T02:53:14;100051.41;;;0.31;100.00
21357;BME280;10836;53.068;18.234;2023-03-15T02:55:41;100063.63;;;0.27;100.00
21357;BME280;10836;53.068;18.234;2023-03-15T02:58:08;100066.47;;;0.32;100.00
21357;BME280;10836;53.068;18.234;2023-03-15T03:00:34;100056.63;;;0.26;100.00
21357;BME280;10836;53.068;18.234;2023-03-15T03:03:02;100063.34;;;0.35;100.00
21357;BME280;10836;53.068;18.234;2023-03-15T03:05:30;100076.00;;;0.28;100.00
21357;BME280;10836;53.068;18.234;2023-03-15T03:07:57;100076.38;;;0.31;100.00
21357;BME280;10836;53.068;18.234;2023-03-15T03:10:25;100087.94;;;0.32;100.00
21357;BME280;10836;53.068;18.234;2023-03-15T03:12:55;100092.06;;;0.35;100.00
21357;BME280;10836;53.068;18.234;2023-03-15T03:15:29;100094.53;;;0.36;100.00
21357;BME280;10836;53.068;18.234;2023-03-15T03:17:56;100107.97;;;0.36;100.00
21357;BME280;10836;53.068;18.234;2023-03-15T03:20:23;100107.28;;;0.41;100.00
21357;BME280;10836;53.068;18.234;2023-03-15T03:22:51;100110.72;;;0.48;100.00
21357;BME280;10836;53.068;18.234;2023-03-15T03:25:17;100121.22;;;0.49;100.00
21357;BME280;10836;53.068;18.234;2023-03-15T03:27:46;100117.50;;;0.50;100.00
21357;BME280;10836;53.068;18.234;2023-03-15T03:30:14;100127.38;;;0.56;100.00
21357;BME280;10836;53.068;18.234;2023-03-15T03:32:47;100133.13;;;0.60;100.00
21357;BME280;10836;53.068;18.234;2023-03-15T03:35:14;100136.78;;;0.65;100.00
21357;BME280;10836;53.068;18.234;2023-03-15T03:37:42;100140.91;;;0.68;100.00
21357;BME280;10836;53.068;18.234;2023-03-15T03:40:14;100145.00;;;0.71;100.00
21357;BME280;10836;53.068;18.234;2023-03-15T03:42:41;100152.03;;;0.72;100.00
21357;BME280;10836;53.068;18.234;2023-03-15T03:45:08;100159.03;;;0.73;100.00
21357;BME280;10836;53.068;18.234;2023-03-15T03:47:40;100154.09;;;0.70;100.00
21357;BME280;10836;53.068;18.234;2023-03-15T03:50:09;100159.03;;;0.73;100.00
21357;BME280;10836;53.068;18.234;2023-03-15T03:52:37;100171.13;;;0.63;100.00
21357;BME280;10836;53.068;18.234;2023-03-15T03:55:08;100181.41;;;0.66;100.00
21357;BME280;10836;53.068;18.234;2023-03-15T03:57:36;100190.09;;;0.69;100.00
21357;BME280;10836;53.068;18.234;2023-03-15T04:00:09;100179.44;;;0.55;100.00
21357;BME280;10836;53.068;18.234;2023-03-15T04:02:40;100193.94;;;0.54;100.00
21357;BME280;10836;53.068;18.234;2023-03-15T04:05:13;100194.81;;;0.48;100.00
21357;BME280;10836;53.068;18.234;2023-03-15T04:07:42;100193.94;;;0.54;100.00
21357;BME280;10836;53.068;18.234;2023-03-15T04:10:10;100190.78;;;0.39;100.00
21357;BME280;10836;53.068;18.234;2023-03-15T04:12:43;100194.56;;;0.31;100.00
21357;BME280;10836;53.068;18.234;2023-03-15T04:15:12;100196.69;;;0.23;100.00
21357;BME280;10836;53.068;18.234;2023-03-15T04:17:40;100199.16;;;0.24;100.00
21357;BME280;10836;53.068;18.234;2023-03-15T04:20:08;100200.50;;;0.09;100.00
21357;BME280;10836;53.068;18.234;2023-03-15T04:22:42;100205.69;;;0.04;100.00
21357;BME280;10836;53.068;18.234;2023-03-15T04:25:38;100213.13;;;0.02;100.00
21357;BME280;10836;53.068;18.234;2023-03-15T04:28:25;100210.91;;;-0.02;100.00
21357;BME280;10836;53.068;18.234;2023-03-15T04:31:14;100210.56;;;-0.12;100.00
21357;BME280;10836;53.068;18.234;2023-03-15T04:34:19;100229.13;;;-0.10;100.00
21357;BME280;10836;53.068;18.234;2023-03-15T04:36:59;100227.09;;;-0.15;100.00
21357;BME280;10836;53.068;18.234;2023-03-15T04:39:46;100239.47;;;-0.14;100.00
21357;BME280;10836;53.068;18.234;2023-03-15T04:42:22;100239.28;;;-0.19;100.00
21357;BME280;10836;53.068;18.234;2023-03-15T04:45:08;100240.38;;;-0.33;100.00
21357;BME280;10836;53.068;18.234;2023-03-15T04:47:36;100248.25;;;-0.38;100.00
21357;BME280;10836;53.068;18.234;2023-03-15T04:50:24;100259.34;;;-0.28;100.00
21357;BME280;10836;53.068;18.234;2023-03-15T04:53:13;100271.28;;;-0.24;100.00
21357;BME280;10836;53.068;18.234;2023-03-15T04:56:06;100274.34;;;-0.14;100.00
21357;BME280;10836;53.068;18.234;2023-03-15T04:58:33;100264.22;;;-0.12;100.00
21357;BME280;10836;53.068;18.234;2023-03-15T05:01:18;100266.31;;;-0.14;100.00
21357;BME280;10836;53.068;18.234;2023-03-15T05:04:03;100274.28;;;-0.01;100.00
21357;BME280;10836;53.068;18.234;2023-03-15T05:06:47;100286.81;;;0.06;100.00
21357;BME280;10836;53.068;18.234;2023-03-15T05:09:32;100290.16;;;0.01;100.00
21357;BME280;10836;53.068;18.234;2023-03-15T05:12:26;100292.97;;;0.13;100.00
21357;BME280;10836;53.068;18.234;2023-03-15T05:15:12;100310.75;;;0.14;100.00
21357;BME280;10836;53.068;18.234;2023-03-15T05:17:58;100308.22;;;0.19;100.00
21357;BME280;10836;53.068;18.234;2023-03-15T05:20:56;100310.72;;;0.20;100.00
21357;BME280;10836;53.068;18.234;2023-03-15T05:23:41;100308.22;;;0.19;100.00
21357;BME280;10836;53.068;18.234;2023-03-15T05:26:27;100315.63;;;0.30;100.00
21357;BME280;10836;53.068;18.234;2023-03-15T05:29:11;100316.84;;;0.34;100.00
21357;BME280;10836;53.068;18.234;2023-03-15T05:31:59;100315.78;;;0.35;100.00
21357;BME280;10836;53.068;18.234;2023-03-15T05:34:38;100315.97;;;0.40;100.00
21357;BME280;10836;53.068;18.234;2023-03-15T05:37:43;100327.91;;;0.44;100.00
21357;BME280;10836;53.068;18.234;2023-03-15T05:40:22;100334.91;;;0.45;100.00
21357;BME280;10836;53.068;18.234;2023-03-15T05:43:09;100331.19;;;0.46;100.00
21357;BME280;10836;53.068;18.234;2023-03-15T05:45:54;100333.63;;;0.54;100.00
21357;BME280;10836;53.068;18.234;2023-03-15T05:48:42;100344.38;;;0.54;100.00
21357;BME280;10836;53.068;18.234;2023-03-15T05:51:27;100339.00;;;0.54;100.00
21357;BME280;10836;53.068;18.234;2023-03-15T05:54:08;100353.03;;;0.56;100.00
21357;BME280;10836;53.068;18.234;2023-03-15T05:56:51;100358.91;;;1.03;100.00
21357;BME280;10836;53.068;18.234;2023-03-15T05:59:30;100375.63;;;1.73;100.00
21357;BME280;10836;53.068;18.234;2023-03-15T06:02:12;100382.38;;;2.30;100.00
21357;BME280;10836;53.068;18.234;2023-03-15T06:04:47;100380.75;;;2.59;100.00
21357;BME280;10836;53.068;18.234;2023-03-15T06:07:17;100386.84;;;2.37;100.00
21357;BME280;10836;53.068;18.234;2023-03-15T06:09:45;100409.25;;;1.64;100.00
21357;BME280;10836;53.068;18.234;2023-03-15T06:12:12;100415.53;;;1.76;100.00
21357;BME280;10836;53.068;18.234;2023-03-15T06:14:40;100420.06;;;1.32;100.00
21357;BME280;10836;53.068;18.234;2023-03-15T06:17:08;100424.72;;;1.25;100.00
21357;BME280;10836;53.068;18.234;2023-03-15T06:19:34;100425.38;;;1.21;100.00
21357;BME280;10836;53.068;18.234;2023-03-15T06:22:03;100436.78;;;1.16;100.00
21357;BME280;10836;53.068;18.234;2023-03-15T06:24:39;100435.03;;;0.97;100.00
21357;BME280;10836;53.068;18.234;2023-03-15T06:27:06;100435.03;;;0.97;100.00
21357;BME280;10836;53.068;18.234;2023-03-15T06:29:34;100442.94;;;0.92;100.00
21357;BME280;10836;53.068;18.234;2023-03-15T06:32:04;100454.91;;;0.96;100.00
21357;BME280;10836;53.068;18.234;2023-03-15T06:34:33;100451.38;;;0.95;100.00
21357;BME280;10836;53.068;18.234;2023-03-15T06:37:01;100458.19;;;0.98;100.00
21357;BME280;10836;53.068;18.234;2023-03-15T06:39:28;100446.97;;;1.08;100.00
21357;BME280;10836;53.068;18.234;2023-03-15T06:41:56;100449.88;;;1.06;100.00
21357;BME280;10836;53.068;18.234;2023-03-15T06:44:26;100457.25;;;1.17;100.00
21357;BME280;10836;53.068;18.234;2023-03-15T06:46:58;100467.19;;;1.42;100.00
21357;BME280;10836;53.068;18.234;2023-03-15T06:49:26;100468.75;;;1.99;100.00
21357;BME280;10836;53.068;18.234;2023-03-15T06:51:53;100477.34;;;2.44;100.00
21357;BME280;10836;53.068;18.234;2023-03-15T06:54:21;100480.03;;;2.44;100.00
21357;BME280;10836;53.068;18.234;2023-03-15T06:56:48;100481.31;;;2.42;100.00
21357;BME280;10836;53.068;18.234;2023-03-15T06:59:16;100488.34;;;2.43;100.00
21357;BME280;10836;53.068;18.234;2023-03-15T07:01:43;100494.50;;;2.13;100.00
21357;BME280;10836;53.068;18.234;2023-03-15T07:04:10;100491.59;;;2.15;100.00
21357;BME280;10836;53.068;18.234;2023-03-15T07:06:37;100504.28;;;2.26;100.00
21357;BME280;10836;53.068;18.234;2023-03-15T07:09:04;100493.44;;;2.32;100.00
21357;BME280;10836;53.068;18.234;2023-03-15T07:11:32;100500.06;;;1.93;100.00
21357;BME280;10836;53.068;18.234;2023-03-15T07:13:59;100497.03;;;2.26;100.00
21357;BME280;10836;53.068;18.234;2023-03-15T07:16:26;100503.00;;;2.28;100.00
21357;BME280;10836;53.068;18.234;2023-03-15T07:18:52;100506.84;;;2.57;100.00
21357;BME280;10836;53.068;18.234;2023-03-15T07:21:21;100507.72;;;2.70;100.00
21357;BME280;10836;53.068;18.234;2023-03-15T07:23:48;100515.28;;;2.61;100.00
21357;BME280;10836;53.068;18.234;2023-03-15T07:26:15;100509.22;;;2.29;100.00
21357;BME280;10836;53.068;18.234;2023-03-15T07:28:42;100511.63;;;2.37;100.00
21357;BME280;10836;53.068;18.234;2023-03-15T07:31:10;100525.22;;;2.79;100.00
21357;BME280;10836;53.068;18.234;2023-03-15T07:33:38;100515.19;;;2.86;100.00
21357;BME280;10836;53.068;18.234;2023-03-15T07:36:06;100523.81;;;2.76;100.00
21357;BME280;10836;53.068;18.234;2023-03-15T07:38:34;100528.22;;;2.71;100.00
21357;BME280;10836;53.068;18.234;2023-03-15T07:41:02;100527.75;;;2.92;100.00
21357;BME280;10836;53.068;18.234;2023-03-15T07:43:29;100539.19;;;2.57;100.00
21357;BME280;10836;53.068;18.234;2023-03-15T07:46:12;100543.50;;;2.22;100.00
21357;BME280;10836;53.068;18.234;2023-03-15T07:48:39;100545.47;;;2.15;100.00
21357;BME280;10836;53.068;18.234;2023-03-15T07:51:06;100553.22;;;2.05;100.00
21357;BME280;10836;53.068;18.234;2023-03-15T07:53:33;100551.66;;;1.90;100.00
21357;BME280;10836;53.068;18.234;2023-03-15T07:56:00;100544.47;;;1.84;100.00
21357;BME280;10836;53.068;18.234;2023-03-15T07:58:27;100556.84;;;1.67;100.00
21357;BME280;10836;53.068;18.234;2023-03-15T08:00:55;100566.44;;;1.81;100.00
21357;BME280;10836;53.068;18.234;2023-03-15T08:03:23;100576.28;;;1.69;100.00
21357;BME280;10836;53.068;18.234;2023-03-15T08:05:50;100575.19;;;1.77;100.00
21357;BME280;10836;53.068;18.234;2023-03-15T08:08:17;100584.63;;;1.86;100.00
21357;BME280;10836;53.068;18.234;2023-03-15T08:10:45;100573.38;;;1.95;100.00
21357;BME280;10836;53.068;18.234;2023-03-15T08:13:12;100591.03;;;1.91;100.00
21357;BME280;10836;53.068;18.234;2023-03-15T08:15:39;100587.00;;;2.00;100.00
21357;BME280;10836;53.068;18.234;2023-03-15T08:18:07;100591.41;;;1.95;100.00
21357;BME280;10836;53.068;18.234;2023-03-15T08:20:34;100586.56;;;2.04;100.00
21357;BME280;10836;53.068;18.234;2023-03-15T08:23:01;100585.56;;;2.23;100.00
21357;BME280;10836;53.068;18.234;2023-03-15T08:25:28;100599.38;;;2.51;100.00
21357;BME280;10836;53.068;18.234;2023-03-15T08:27:55;100598.63;;;2.44;100.00
21357;BME280;10836;53.068;18.234;2023-03-15T08:30:22;100607.41;;;2.58;100.00
21357;BME280;10836;53.068;18.234;2023-03-15T08:32:50;100611.28;;;2.62;100.00
21357;BME280;10836;53.068;18.234;2023-03-15T08:35:20;100608.81;;;2.60;100.00
21357;BME280;10836;53.068;18.234;2023-03-15T08:37:48;100615.41;;;2.64;100.00
21357;BME280;10836;53.068;18.234;2023-03-15T08:40:16;100621.00;;;2.63;100.00
21357;BME280;10836;53.068;18.234;2023-03-15T08:42:50;100622.88;;;2.44;100.00
21357;BME280;10836;53.068;18.234;2023-03-15T08:45:17;100623.81;;;2.56;100.00
21357;BME280;10836;53.068;18.234;2023-03-15T08:47:45;100627.84;;;2.65;100.00
21357;BME280;10836;53.068;18.234;2023-03-15T08:50:13;100627.22;;;2.45;100.00
21357;BME280;10836;53.068;18.234;2023-03-15T08:52:41;100629.19;;;2.56;100.00
21357;BME280;10836;53.068;18.234;2023-03-15T08:55:09;100621.00;;;2.45;100.00
21357;BME280;10836;53.068;18.234;2023-03-15T08:57:36;100632.50;;;2.58;100.00
21357;BME280;10836;53.068;18.234;2023-03-15T09:00:04;100636.53;;;2.67;100.00
21357;BME280;10836;53.068;18.234;2023-03-15T09:02:35;100641.09;;;2.67;100.00
21357;BME280;10836;53.068;18.234;2023-03-15T09:05:03;100652.13;;;2.84;100.00
21357;BME280;10836;53.068;18.234;2023-03-15T09:07:33;100646.34;;;2.80;100.00
21357;BME280;10836;53.068;18.234;2023-03-15T09:10:00;100656.91;;;2.82;100.00
21357;BME280;10836;53.068;18.234;2023-03-15T09:12:30;100658.31;;;2.66;100.00
21357;BME280;10836;53.068;18.234;2023-03-15T09:14:57;100667.22;;;2.66;100.00
21357;BME280;10836;53.068;18.234;2023-03-15T09:17:24;100664.38;;;2.61;100.00
21357;BME280;10836;53.068;18.234;2023-03-15T09:19:51;100667.03;;;2.43;100.00
21357;BME280;10836;53.068;18.234;2023-03-15T09:22:18;100666.94;;;2.56;100.00
21357;BME280;10836;53.068;18.234;2023-03-15T09:25:04;100682.50;;;2.54;100.00
21357;BME280;10836;53.068;18.234;2023-03-15T09:27:31;100676.84;;;2.81;100.00
21357;BME280;10836;53.068;18.234;2023-03-15T09:29:59;100675.41;;;2.78;100.00
21357;BME280;10836;53.068;18.234;2023-03-15T09:32:25;100676.22;;;2.79;100.00
21357;BME280;10836;53.068;18.234;2023-03-15T09:34:53;100679.38;;;2.76;100.00
21357;BME280;10836;53.068;18.234;2023-03-15T09:37:19;100683.59;;;2.90;100.00
21357;BME280;10836;53.068;18.234;2023-03-15T09:39:47;100686.44;;;2.95;100.00
21357;BME280;10836;53.068;18.234;2023-03-15T09:42:26;100685.91;;;2.86;100.00
21357;BME280;10836;53.068;18.234;2023-03-15T09:45:20;100692.34;;;2.85;100.00
21357;BME280;10836;53.068;18.234;2023-03-15T09:48:03;100700.97;;;2.94;100.00
21357;BME280;10836;53.068;18.234;2023-03-15T09:50:35;100699.00;;;2.83;100.00
21357;BME280;10836;53.068;18.234;2023-03-15T09:53:11;100699.72;;;2.96;100.00
21357;BME280;10836;53.068;18.234;2023-03-15T09:55:41;100707.38;;;2.75;100.00
21357;BME280;10836;53.068;18.234;2023-03-15T09:58:19;100711.13;;;2.74;100.00
21357;BME280;10836;53.068;18.234;2023-03-15T10:00:53;100720.31;;;2.91;100.00
21357;BME280;10836;53.068;18.234;2023-03-15T10:03:29;100712.53;;;3.01;100.00
21357;BME280;10836;53.068;18.234;2023-03-15T10:06:02;100721.03;;;2.80;100.00
21357;BME280;10836;53.068;18.234;2023-03-15T10:08:31;100727.88;;;2.57;100.00
21357;BME280;10836;53.068;18.234;2023-03-15T10:11:19;100729.97;;;2.55;100.00
21357;BME280;10836;53.068;18.234;2023-03-15T10:13:59;100738.97;;;2.67;100.00
21357;BME280;10836;53.068;18.234;2023-03-15T10:16:40;100741.97;;;3.03;100.00
21357;BME280;10836;53.068;18.234;2023-03-15T10:24:30;100744.69;;;2.78;100.00
21357;BME280;10836;53.068;18.234;2023-03-15T10:27:13;100745.47;;;2.85;100.00
21357;BME280;10836;53.068;18.234;2023-03-15T10:29:42;100744.75;;;2.96;100.00
21357;BME280;10836;53.068;18.234;2023-03-15T10:32:15;100753.13;;;3.06;100.00
21357;BME280;10836;53.068;18.234;2023-03-15T10:34:48;100749.41;;;3.25;100.00
21357;BME280;10836;53.068;18.234;2023-03-15T10:37:18;100756.59;;;3.31;99.97
21357;BME280;10836;53.068;18.234;2023-03-15T10:39:46;100756.47;;;3.45;100.00
21357;BME280;10836;53.068;18.234;2023-03-15T10:42:25;100759.28;;;3.50;96.41
21357;BME280;10836;53.068;18.234;2023-03-15T10:44:52;100755.09;;;3.17;97.71
21357;BME280;10836;53.068;18.234;2023-03-15T10:47:24;100754.25;;;3.17;98.00
21357;BME280;10836;53.068;18.234;2023-03-15T10:49:56;100760.50;;;3.17;96.60
21357;BME280;10836;53.068;18.234;2023-03-15T10:52:34;100772.19;;;3.48;98.26
21357;BME280;10836;53.068;18.234;2023-03-15T10:55:15;100762.31;;;3.42;97.47
21357;BME280;10836;53.068;18.234;2023-03-15T10:57:55;100759.13;;;3.63;99.21
21357;BME280;10836;53.068;18.234;2023-03-15T11:00:29;100762.72;;;3.75;97.19
21357;BME280;10836;53.068;18.234;2023-03-15T11:03:15;100766.84;;;3.78;95.31
21357;BME280;10836;53.068;18.234;2023-03-15T11:05:44;100775.34;;;3.63;95.79
21357;BME280;10836;53.068;18.234;2023-03-15T11:08:16;100768.75;;;3.59;97.72
21357;BME280;10836;53.068;18.234;2023-03-15T11:10:44;100769.47;;;3.84;95.79
21357;BME280;10836;53.068;18.234;2023-03-15T11:13:20;100773.19;;;4.01;96.66
21357;BME280;10836;53.068;18.234;2023-03-15T11:16:04;100777.53;;;4.03;93.77
21357;BME280;10836;53.068;18.234;2023-03-15T11:18:36;100775.94;;;3.83;96.48
21357;BME280;10836;53.068;18.234;2023-03-15T11:21:07;100787.09;;;3.50;97.46
21357;BME280;10836;53.068;18.234;2023-03-15T11:23:38;100770.25;;;3.37;97.96
21357;BME280;10836;53.068;18.234;2023-03-15T11:26:09;100779.00;;;3.68;95.87
21357;BME280;10836;53.068;18.234;2023-03-15T11:29:14;100774.66;;;4.16;95.80
21357;BME280;10836;53.068;18.234;2023-03-15T11:31:43;100787.38;;;4.27;92.76
21357;BME280;10836;53.068;18.234;2023-03-15T11:34:15;100783.81;;;4.56;91.59
21357;BME280;10836;53.068;18.234;2023-03-15T11:36:50;100784.94;;;4.37;93.33
21357;BME280;10836;53.068;18.234;2023-03-15T11:39:50;100787.97;;;4.71;90.99
21357;BME280;10836;53.068;18.234;2023-03-15T11:42:32;100779.38;;;4.85;89.67
21357;BME280;10836;53.068;18.234;2023-03-15T11:45:04;100793.25;;;4.65;90.20
21357;BME280;10836;53.068;18.234;2023-03-15T11:47:41;100790.56;;;4.35;90.09
21357;BME280;10836;53.068;18.234;2023-03-15T11:50:14;100788.75;;;4.59;92.50
21357;BME280;10836;53.068;18.234;2023-03-15T11:52:42;100798.44;;;4.90;91.10
21357;BME280;10836;53.068;18.234;2023-03-15T11:55:24;100787.38;;;4.92;89.59
21357;BME280;10836;53.068;18.234;2023-03-15T11:57:53;100781.88;;;5.10;86.29
21357;BME280;10836;53.068;18.234;2023-03-15T12:06:01;100783.91;;;8.23;76.53
21357;BME280;10836;53.068;18.234;2023-03-15T12:11:01;100778.69;;;7.51;69.58
21357;BME280;10836;53.068;18.234;2023-03-15T12:13:35;100791.84;;;6.53;72.54
21357;BME280;10836;53.068;18.234;2023-03-15T12:16:04;100785.13;;;5.59;73.22
21357;BME280;10836;53.068;18.234;2023-03-15T12:18:38;100784.91;;;5.25;72.64
21357;BME280;10836;53.068;18.234;2023-03-15T12:21:30;100779.72;;;5.35;71.75
21357;BME280;10836;53.068;18.234;2023-03-15T12:24:03;100790.78;;;5.22;72.78
21357;BME280;10836;53.068;18.234;2023-03-15T12:26:39;100788.81;;;4.94;70.50
21357;BME280;10836;53.068;18.234;2023-03-15T12:29:13;100781.41;;;5.01;69.61
21357;BME280;10836;53.068;18.234;2023-03-15T12:31:43;100780.81;;;4.99;70.32
21357;BME280;10836;53.068;18.234;2023-03-15T12:34:20;100774.94;;;5.03;71.22
21357;BME280;10836;53.068;18.234;2023-03-15T12:36:50;100777.41;;;5.04;71.83
21357;BME280;10836;53.068;18.234;2023-03-15T12:39:36;100778.09;;;5.11;71.37
21357;BME280;10836;53.068;18.234;2023-03-15T12:42:04;100780.91;;;4.93;75.67
21357;BME280;10836;53.068;18.234;2023-03-15T12:47:02;100791.28;;;5.19;73.50
21357;BME280;10836;53.068;18.234;2023-03-15T12:49:39;100796.44;;;5.21;71.92
21357;BME280;10836;53.068;18.234;2023-03-15T12:54:50;100790.91;;;5.51;70.70
21357;BME280;10836;53.068;18.234;2023-03-15T12:57:34;100793.84;;;5.61;71.60
21357;BME280;10836;53.068;18.234;2023-03-15T13:00:11;100787.66;;;5.65;73.04
21357;BME280;10836;53.068;18.234;2023-03-15T13:02:45;100789.38;;;6.68;67.33
21357;BME280;10836;53.068;18.234;2023-03-15T13:05:27;100795.50;;;8.67;61.58
21357;BME280;10836;53.068;18.234;2023-03-15T13:13:24;100799.91;;;10.05;50.38
21357;BME280;10836;53.068;18.234;2023-03-15T13:16:07;100789.78;;;9.38;47.78
21357;BME280;10836;53.068;18.234;2023-03-15T13:22:16;100801.13;;;7.63;54.75
21357;BME280;10836;53.068;18.234;2023-03-15T13:25:00;100799.06;;;9.42;49.92
21357;BME280;10836;53.068;18.234;2023-03-15T13:33:05;100793.75;;;9.67;45.20
21357;BME280;10836;53.068;18.234;2023-03-15T13:40:50;100808.22;;;10.40;42.38
21357;BME280;10836;53.068;18.234;2023-03-15T13:43:17;100805.06;;;10.01;45.01
21357;BME280;10836;53.068;18.234;2023-03-15T13:45:44;100809.69;;;9.90;45.35
21357;BME280;10836;53.068;18.234;2023-03-15T13:48:11;100807.09;;;10.26;44.59
21357;BME280;10836;53.068;18.234;2023-03-15T13:50:39;100821.34;;;10.53;42.12
21357;BME280;10836;53.068;18.234;2023-03-15T13:53:06;100814.69;;;11.76;38.15
21357;BME280;10836;53.068;18.234;2023-03-15T13:55:34;100810.44;;;11.29;40.10